createdAt,value
2023-04-15T00:01:41.182Z,6.10
2023-04-15T00:04:08.133Z,6.10
2023-04-15T00:06:36.943Z,6.10
2023-04-15T00:09:03.940Z,6.10
2023-04-15T00:11:30.982Z,6.00
2023-04-15T00:13:58.562Z,6.00
2023-04-15T00:16:25.596Z,6.00
2023-04-15T00:18:52.460Z,5.90
2023-04-15T00:21:19.325Z,6.00
2023-04-15T00:23:49.726Z,5.90
2023-04-15T00:26:16.618Z,5.90
2023-04-15T00:28:44.666Z,5.80
2023-04-15T00:31:11.561Z,5.80
2023-04-15T00:33:38.475Z,5.80
2023-04-15T00:36:07.168Z,5.80
2023-04-15T00:38:33.964Z,5.80
2023-04-15T00:41:00.953Z,5.80
2023-04-15T00:43:27.770Z,5.80
2023-04-15T00:45:55.925Z,5.80
2023-04-15T00:48:23.051Z,5.70
2023-04-15T00:50:50.011Z,5.80
2023-04-15T00:53:16.869Z,5.80
2023-04-15T00:55:43.795Z,5.80
2023-04-15T00:58:11.021Z,5.80
2023-04-15T01:00:37.911Z,5.80
2023-04-15T01:03:05.284Z,5.90
2023-04-15T01:05:32.381Z,5.90
2023-04-15T01:07:59.407Z,5.90
2023-04-15T01:10:26.267Z,5.90
2023-04-15T01:12:53.030Z,5.90
2023-04-15T01:15:21.300Z,5.90
2023-04-15T01:17:48.821Z,6.00
2023-04-15T01:20:16.609Z,6.00
2023-04-15T01:22:43.475Z,6.00
2023-04-15T01:25:16.931Z,6.00
2023-04-15T01:27:44.064Z,6.00
2023-04-15T01:30:11.509Z,6.00
2023-04-15T01:32:38.555Z,6.00
2023-04-15T01:35:05.873Z,6.00
2023-04-15T01:37:33.047Z,6.10
2023-04-15T01:39:59.856Z,6.00
2023-04-15T01:42:27.746Z,6.10
2023-04-15T01:44:54.817Z,6.00
2023-04-15T01:47:21.815Z,6.10
2023-04-15T01:49:48.797Z,6.10
2023-04-15T01:52:15.746Z,6.20
2023-04-15T01:54:42.629Z,6.20
2023-04-15T01:57:09.836Z,6.20
2023-04-15T01:59:37.220Z,6.20
2023-04-15T02:02:04.690Z,6.20
2023-04-15T02:04:31.704Z,6.20
2023-04-15T02:07:00.881Z,6.20
2023-04-15T02:09:27.973Z,6.20
2023-04-15T02:11:54.818Z,6.20
2023-04-15T02:14:22.128Z,6.20
2023-04-15T02:16:49.093Z,6.20
2023-04-15T02:19:16.414Z,6.20
2023-04-15T02:21:43.263Z,6.20
2023-04-15T02:24:10.258Z,6.10
2023-04-15T02:26:37.053Z,6.20
2023-04-15T02:29:04.179Z,6.20
2023-04-15T02:31:34.091Z,6.10
2023-04-15T02:34:02.992Z,6.10
2023-04-15T02:36:31.515Z,6.20
2023-04-15T02:38:58.866Z,6.10
2023-04-15T02:41:28.424Z,6.10
2023-04-15T02:43:55.509Z,6.10
2023-04-15T02:46:23.046Z,6.10
2023-04-15T02:48:50.947Z,6.10
2023-04-15T02:51:19.963Z,6.10
2023-04-15T02:53:48.537Z,6.10
2023-04-15T02:56:17.016Z,6.00
2023-04-15T02:58:45.594Z,6.10
2023-04-15T03:01:12.770Z,6.00
2023-04-15T03:03:41.032Z,6.10
2023-04-15T03:06:08.924Z,5.90
2023-04-15T03:08:36.437Z,5.90
2023-04-15T03:11:03.741Z,5.90
2023-04-15T03:13:31.138Z,5.90
2023-04-15T03:16:00.812Z,6.00
2023-04-15T03:18:29.782Z,5.90
2023-04-15T03:21:00.773Z,5.90
2023-04-15T03:23:28.599Z,5.90
2023-04-15T03:25:57.965Z,5.90
2023-04-15T03:28:25.977Z,5.90
2023-04-15T03:30:55.849Z,5.90
2023-04-15T03:33:22.825Z,5.90
2023-04-15T03:35:51.537Z,5.90
2023-04-15T03:38:18.715Z,5.90
2023-04-15T03:40:47.829Z,5.80
2023-04-15T03:43:14.875Z,5.80
2023-04-15T03:45:41.776Z,5.80
2023-04-15T03:48:17.311Z,5.80
2023-04-15T03:50:44.622Z,5.70
2023-04-15T03:53:11.414Z,5.70
2023-04-15T03:55:38.289Z,5.70
2023-04-15T03:58:05.132Z,5.70
2023-04-15T04:00:32.120Z,5.80
2023-04-15T04:02:59.131Z,5.70
2023-04-15T04:05:26.298Z,5.70
2023-04-15T04:07:53.062Z,5.70
2023-04-15T04:10:20.093Z,5.60
2023-04-15T04:12:47.023Z,5.60
2023-04-15T04:15:13.853Z,5.70
2023-04-15T04:17:40.796Z,5.70
2023-04-15T04:20:08.557Z,5.60
2023-04-15T04:22:41.689Z,5.60
2023-04-15T04:25:10.263Z,5.60
2023-04-15T04:27:37.482Z,5.60
2023-04-15T04:30:06.809Z,5.60
2023-04-15T04:32:33.726Z,5.60
2023-04-15T04:35:00.924Z,5.60
2023-04-15T04:37:27.663Z,5.60
2023-04-15T04:39:54.497Z,5.60
2023-04-15T04:42:21.783Z,5.50
2023-04-15T04:44:48.609Z,5.60
2023-04-15T04:47:15.472Z,5.60
2023-04-15T04:49:42.319Z,5.60
2023-04-15T04:52:09.064Z,5.60
2023-04-15T04:54:36.238Z,5.60
2023-04-15T04:57:03.126Z,5.60
2023-04-15T04:59:30.038Z,5.60
2023-04-15T05:01:57.096Z,5.60
2023-04-15T05:04:24.123Z,5.60
2023-04-15T05:06:50.929Z,5.60
2023-04-15T05:09:18.018Z,5.60
2023-04-15T05:11:44.776Z,5.60
2023-04-15T05:14:11.882Z,5.60
2023-04-15T05:16:38.760Z,5.60
2023-04-15T05:19:05.603Z,5.50
2023-04-15T05:21:32.515Z,5.50
2023-04-15T05:23:59.443Z,5.60
2023-04-15T05:26:27.491Z,5.60
2023-04-15T05:28:54.992Z,5.60
2023-04-15T05:31:21.827Z,5.60
2023-04-15T05:33:48.789Z,5.50
2023-04-15T05:36:15.730Z,5.50
2023-04-15T05:38:42.606Z,5.50
2023-04-15T05:41:09.608Z,5.50
2023-04-15T05:43:36.577Z,5.50
2023-04-15T05:46:03.460Z,5.50
2023-04-15T05:48:30.503Z,5.50
2023-04-15T05:50:57.278Z,5.50
2023-04-15T05:53:24.239Z,5.50
2023-04-15T05:55:51.007Z,5.50
2023-04-15T05:58:17.832Z,5.50
2023-04-15T06:00:45.641Z,5.50
2023-04-15T06:03:12.578Z,5.50
2023-04-15T06:05:39.497Z,5.50
2023-04-15T06:08:06.550Z,5.50
2023-04-15T06:10:36.517Z,5.50
2023-04-15T06:13:04.170Z,5.60
2023-04-15T06:15:31.733Z,5.50
2023-04-15T06:17:58.675Z,5.50
2023-04-15T06:20:25.585Z,5.50
2023-04-15T06:22:52.525Z,5.50
2023-04-15T06:25:19.859Z,5.40
2023-04-15T06:27:46.725Z,5.40
2023-04-15T06:30:13.592Z,5.40
2023-04-15T06:32:40.895Z,5.50
2023-04-15T06:35:08.037Z,5.40
2023-04-15T06:37:34.882Z,5.40
2023-04-15T06:40:01.678Z,5.40
2023-04-15T06:42:28.657Z,5.40
2023-04-15T06:44:55.656Z,5.40
2023-04-15T06:47:22.757Z,5.50
2023-04-15T06:49:49.571Z,5.40
2023-04-15T06:52:17.046Z,5.40
2023-04-15T06:54:43.849Z,5.50
2023-04-15T06:57:10.739Z,5.50
2023-04-15T06:59:37.512Z,5.50
2023-04-15T07:02:04.836Z,5.40
2023-04-15T07:04:32.856Z,5.50
2023-04-15T07:07:02.492Z,5.50
2023-04-15T07:09:29.717Z,5.50
2023-04-15T07:11:56.621Z,5.50
2023-04-15T07:14:23.490Z,5.50
2023-04-15T07:16:50.593Z,5.50
2023-04-15T07:19:17.425Z,5.60
2023-04-15T07:21:44.312Z,5.60
2023-04-15T07:24:11.109Z,5.60
2023-04-15T07:26:37.894Z,5.50
2023-04-15T07:29:04.689Z,5.70
2023-04-15T07:31:31.791Z,5.60
2023-04-15T07:33:58.713Z,5.60
2023-04-15T07:36:25.967Z,5.60
2023-04-15T07:38:52.726Z,5.60
2023-04-15T07:41:20.435Z,5.60
2023-04-15T07:43:48.438Z,5.50
2023-04-15T07:46:16.121Z,5.60
2023-04-15T07:48:43.186Z,5.60
2023-04-15T07:51:10.869Z,5.60
2023-04-15T07:53:38.107Z,5.60
2023-04-15T07:56:05.613Z,5.60
2023-04-15T07:58:32.429Z,5.60
2023-04-15T08:00:59.502Z,5.60
2023-04-15T08:03:26.706Z,5.60
2023-04-15T08:05:54.417Z,5.60
2023-04-15T08:08:21.230Z,5.70
2023-04-15T08:10:49.286Z,5.60
2023-04-15T08:13:17.129Z,5.70
2023-04-15T08:15:44.215Z,5.60
2023-04-15T08:18:11.279Z,5.60
2023-04-15T08:20:38.453Z,5.60
2023-04-15T08:23:05.242Z,5.60
2023-04-15T08:25:32.171Z,5.60
2023-04-15T08:27:59.127Z,5.60
2023-04-15T08:30:26.027Z,5.60
2023-04-15T08:32:52.920Z,5.60
2023-04-15T08:35:19.866Z,5.70
2023-04-15T08:37:46.655Z,5.60
2023-04-15T08:40:13.669Z,5.60
2023-04-15T08:42:48.979Z,5.60
2023-04-15T08:45:16.922Z,5.60
2023-04-15T08:47:45.696Z,5.60
2023-04-15T08:50:12.995Z,5.60
2023-04-15T08:52:40.240Z,5.60
2023-04-15T08:55:09.627Z,5.60
2023-04-15T08:57:38.039Z,5.60
2023-04-15T09:00:05.939Z,5.60
2023-04-15T09:02:32.952Z,5.60
2023-04-15T09:04:59.855Z,5.60
2023-04-15T09:07:27.059Z,5.50
2023-04-15T09:09:54.137Z,5.60
2023-04-15T09:12:21.803Z,5.60
2023-04-15T09:14:49.438Z,5.60
2023-04-15T09:17:21.040Z,5.60
2023-04-15T09:19:48.054Z,5.60
2023-04-15T09:22:15.841Z,5.60
2023-04-15T09:24:43.403Z,5.50
2023-04-15T09:27:11.046Z,5.60
2023-04-15T09:29:38.244Z,5.60
2023-04-15T09:32:15.708Z,5.60
2023-04-15T09:34:43.101Z,5.60
2023-04-15T09:37:11.215Z,5.60
2023-04-15T09:39:48.486Z,5.60
2023-04-15T09:42:15.700Z,5.60
2023-04-15T09:44:42.562Z,5.60
2023-04-15T09:47:09.702Z,5.70
2023-04-15T09:49:36.473Z,5.60
2023-04-15T09:52:07.535Z,5.60
2023-04-15T09:54:39.488Z,5.60
2023-04-15T09:57:10.466Z,5.70
2023-04-15T09:59:37.735Z,5.70
2023-04-15T10:02:08.397Z,5.70
2023-04-15T10:04:40.300Z,5.70
2023-04-15T10:07:08.693Z,5.70
2023-04-15T10:09:43.092Z,5.70
2023-04-15T10:12:13.739Z,5.70
2023-04-15T10:14:47.824Z,5.80
2023-04-15T10:17:21.625Z,5.70
2023-04-15T10:19:49.288Z,5.80
2023-04-15T10:22:18.197Z,5.70
2023-04-15T10:24:47.436Z,5.80
2023-04-15T10:27:15.133Z,5.80
2023-04-15T10:29:43.164Z,5.70
2023-04-15T10:32:11.336Z,5.80
2023-04-15T10:34:39.186Z,5.80
2023-04-15T10:37:11.578Z,5.80
2023-04-15T10:39:44.664Z,5.70
2023-04-15T10:42:16.291Z,5.80
2023-04-15T10:44:56.858Z,5.80
2023-04-15T10:47:24.039Z,5.80
2023-04-15T10:50:02.326Z,5.70
2023-04-15T10:52:33.359Z,5.80
2023-04-15T10:55:12.067Z,5.80
2023-04-15T10:57:40.791Z,5.80
2023-04-15T11:00:16.107Z,5.80
2023-04-15T11:02:47.654Z,5.80
2023-04-15T11:05:21.811Z,5.90
2023-04-15T11:07:55.220Z,5.90
2023-04-15T11:10:31.282Z,5.90
2023-04-15T11:13:14.662Z,5.90
2023-04-15T11:15:45.833Z,5.90
2023-04-15T11:18:12.744Z,5.90
2023-04-15T11:20:47.159Z,5.90
2023-04-15T11:23:19.062Z,5.90
2023-04-15T11:25:46.316Z,5.90
2023-04-15T11:28:13.804Z,5.90
2023-04-15T11:30:42.088Z,5.90
2023-04-15T11:33:12.348Z,5.90
2023-04-15T11:35:41.883Z,5.90
2023-04-15T11:38:11.761Z,5.90
2023-04-15T11:40:39.659Z,6.00
2023-04-15T11:43:10.709Z,6.00
2023-04-15T11:45:47.568Z,6.00
2023-04-15T11:48:14.931Z,6.00
2023-04-15T11:50:41.755Z,6.00
2023-04-15T11:53:10.413Z,6.00
2023-04-15T11:55:54.286Z,6.00
2023-04-15T11:58:24.010Z,6.00
2023-04-15T12:00:57.135Z,6.10
2023-04-15T12:03:28.596Z,6.10
2023-04-15T12:06:16.506Z,6.10
2023-04-15T12:08:57.189Z,6.10
2023-04-15T12:11:29.595Z,6.10
2023-04-15T12:14:06.748Z,6.10
2023-04-15T12:16:46.699Z,6.10
2023-04-15T12:19:34.694Z,6.10
2023-04-15T12:22:05.265Z,6.20
2023-04-15T12:24:37.201Z,6.20
2023-04-15T12:27:04.875Z,6.20
2023-04-15T12:29:36.741Z,6.10
2023-04-15T12:32:09.051Z,6.20
2023-04-15T12:34:52.709Z,6.20
2023-04-15T12:37:20.033Z,6.20
2023-04-15T12:39:49.055Z,6.20
2023-04-15T12:42:16.953Z,6.20
2023-04-15T12:44:44.097Z,6.20
2023-04-15T12:47:12.256Z,6.20
2023-04-15T12:49:50.237Z,6.20
2023-04-15T12:52:21.288Z,6.20
2023-04-15T12:54:49.737Z,6.30
2023-04-15T12:57:20.768Z,6.30
2023-04-15T12:59:56.398Z,6.30
2023-04-15T13:02:39.714Z,6.30
2023-04-15T13:05:10.853Z,6.40
2023-04-15T13:07:39.004Z,6.30
2023-04-15T13:10:06.330Z,6.30
2023-04-15T13:12:40.333Z,6.30
2023-04-15T13:15:09.464Z,6.30
2023-04-15T13:17:38.564Z,6.30
2023-04-15T13:20:05.915Z,6.40
2023-04-15T13:22:40.881Z,6.40
2023-04-15T13:25:08.571Z,6.40
2023-04-15T13:27:35.385Z,6.40
2023-04-15T13:30:02.204Z,6.40
2023-04-15T13:32:28.953Z,6.50
2023-04-15T13:34:56.195Z,6.50
2023-04-15T13:37:30.155Z,6.50
2023-04-15T13:39:57.089Z,6.40
2023-04-15T13:42:24.425Z,6.40
2023-04-15T13:44:51.671Z,6.40
2023-04-15T13:47:20.012Z,6.40
2023-04-15T13:49:46.959Z,6.40
2023-04-15T13:52:14.325Z,6.50
2023-04-15T13:54:41.198Z,6.40
2023-04-15T13:57:08.159Z,6.50
2023-04-15T13:59:35.444Z,6.50
2023-04-15T14:02:02.606Z,6.40
2023-04-15T14:04:30.621Z,6.40
2023-04-15T14:06:59.808Z,6.50
2023-04-15T14:09:28.102Z,6.50
2023-04-15T14:11:54.944Z,6.40
2023-04-15T14:14:21.845Z,6.50
2023-04-15T14:16:48.736Z,6.50
2023-04-15T14:19:15.831Z,6.50
2023-04-15T14:21:42.656Z,6.50
2023-04-15T14:24:09.734Z,6.60
2023-04-15T14:26:36.493Z,6.60
2023-04-15T14:29:03.715Z,6.50
2023-04-15T14:31:30.580Z,6.50
2023-04-15T14:33:57.399Z,6.60
2023-04-15T14:36:24.332Z,6.60
2023-04-15T14:38:51.169Z,6.60
2023-04-15T14:41:17.954Z,6.60
2023-04-15T14:43:44.860Z,6.60
2023-04-15T14:46:11.713Z,6.60
2023-04-15T14:48:38.638Z,6.60
2023-04-15T14:51:05.939Z,6.70
2023-04-15T14:53:33.108Z,6.70
2023-04-15T14:56:00.177Z,6.70
2023-04-15T14:58:27.395Z,6.70
2023-04-15T15:00:54.560Z,6.70
2023-04-15T15:03:21.788Z,6.70
2023-04-15T15:05:49.024Z,6.70
2023-04-15T15:08:16.087Z,6.80
2023-04-15T15:10:49.537Z,6.80
2023-04-15T15:13:18.346Z,6.80
2023-04-15T15:15:45.731Z,6.80
2023-04-15T15:18:26.917Z,6.80
2023-04-15T15:20:53.838Z,6.80
2023-04-15T15:23:20.582Z,6.80
2023-04-15T15:25:47.759Z,6.80
2023-04-15T15:28:14.672Z,6.80
2023-04-15T15:30:41.585Z,6.90
2023-04-15T15:33:08.450Z,6.90
2023-04-15T15:35:35.382Z,6.90
2023-04-15T15:38:02.445Z,6.90
2023-04-15T15:40:29.430Z,7.00
2023-04-15T15:42:56.254Z,7.00
2023-04-15T15:45:23.061Z,7.00
2023-04-15T15:47:50.028Z,7.00
2023-04-15T15:50:17.141Z,7.00
2023-04-15T15:52:44.134Z,7.10
2023-04-15T15:55:11.219Z,7.10
2023-04-15T15:57:38.034Z,7.10
2023-04-15T16:00:11.918Z,7.20
2023-04-15T16:05:10.281Z,7.20
2023-04-15T16:07:37.223Z,7.20
2023-04-15T16:10:04.328Z,7.20
2023-04-15T16:12:31.897Z,7.20
2023-04-15T16:15:00.021Z,7.30
2023-04-15T16:17:26.980Z,7.20
2023-04-15T16:19:57.430Z,7.20
2023-04-15T16:22:27.686Z,7.10
2023-04-15T16:24:54.556Z,7.20
2023-04-15T16:27:21.516Z,7.20
2023-04-15T16:29:48.383Z,7.30
2023-04-15T16:32:16.608Z,7.20
2023-04-15T16:34:43.640Z,7.30
2023-04-15T16:37:10.625Z,7.30
2023-04-15T16:39:37.694Z,7.30
2023-04-15T16:42:04.575Z,7.30
2023-04-15T16:44:31.451Z,7.30
2023-04-15T16:46:58.318Z,7.30
2023-04-15T16:49:25.199Z,7.30
2023-04-15T16:51:54.562Z,7.30
2023-04-15T16:54:21.529Z,7.40
2023-04-15T16:56:48.460Z,7.30
2023-04-15T16:59:15.423Z,7.20
2023-04-15T17:01:42.282Z,7.30
2023-04-15T17:04:09.148Z,7.30
2023-04-15T17:06:36.298Z,7.30
2023-04-15T17:09:03.422Z,7.30
2023-04-15T17:11:31.283Z,7.30
2023-04-15T17:13:58.264Z,7.30
2023-04-15T17:16:25.866Z,7.30
2023-04-15T17:18:53.140Z,7.30
2023-04-15T17:21:20.104Z,7.30
2023-04-15T17:23:46.913Z,7.30
2023-04-15T17:26:13.986Z,7.30
2023-04-15T17:28:40.782Z,7.20
2023-04-15T17:31:07.785Z,7.30
2023-04-15T17:34:00.115Z,7.30
2023-04-15T17:36:22.918Z,7.30
2023-04-15T17:38:49.921Z,7.30
2023-04-15T17:41:16.695Z,7.30
2023-04-15T17:43:43.527Z,7.40
2023-04-15T17:46:12.040Z,7.30
2023-04-15T17:48:39.121Z,7.30
2023-04-15T17:51:06.418Z,7.30
2023-04-15T17:53:33.337Z,7.40
2023-04-15T17:56:00.289Z,7.40
2023-04-15T17:58:28.190Z,7.40
2023-04-15T18:00:55.380Z,7.40
2023-04-15T18:03:22.285Z,7.40
2023-04-15T18:05:49.241Z,7.40
2023-04-15T18:08:16.124Z,7.40
2023-04-15T18:10:42.898Z,7.40
2023-04-15T18:13:10.008Z,7.40
2023-04-15T18:15:36.909Z,7.40
2023-04-15T18:18:03.991Z,7.40
2023-04-15T18:20:31.238Z,7.40
2023-04-15T18:22:58.193Z,7.40
2023-04-15T18:25:25.314Z,7.40
2023-04-15T18:27:52.342Z,7.40
2023-04-15T18:30:19.306Z,7.40
2023-04-15T18:32:46.434Z,7.60
2023-04-15T18:35:13.483Z,7.50
2023-04-15T18:37:40.291Z,7.50
2023-04-15T18:40:07.868Z,7.50
2023-04-15T18:42:34.801Z,7.50
2023-04-15T18:45:02.124Z,7.50
2023-04-15T18:47:29.072Z,7.50
2023-04-15T18:49:58.068Z,7.50
2023-04-15T18:52:31.217Z,7.60
2023-04-15T18:55:07.472Z,7.60
2023-04-15T18:57:35.008Z,7.60
2023-04-15T19:00:03.588Z,7.60
2023-04-15T19:02:30.645Z,7.60
2023-04-15T19:04:57.622Z,7.60
2023-04-15T19:07:24.815Z,7.60
2023-04-15T19:09:52.778Z,7.60
2023-04-15T19:12:19.618Z,7.60
2023-04-15T19:14:46.475Z,7.60
2023-04-15T19:17:13.554Z,7.60
2023-04-15T19:19:40.387Z,7.70
2023-04-15T19:22:08.129Z,7.60
2023-04-15T19:24:35.469Z,7.70
2023-04-15T19:27:02.586Z,7.70
2023-04-15T19:29:29.480Z,7.70
2023-04-15T19:31:56.405Z,7.70
2023-04-15T19:34:24.866Z,7.70
2023-04-15T19:36:51.761Z,7.70
2023-04-15T19:39:18.931Z,7.70
2023-04-15T19:41:46.160Z,7.70
2023-04-15T19:44:13.576Z,7.70
2023-04-15T19:46:43.613Z,7.80
2023-04-15T19:49:10.857Z,7.80
2023-04-15T19:51:37.733Z,7.80
2023-04-15T19:54:04.525Z,7.80
2023-04-15T19:56:33.664Z,7.80
2023-04-15T19:59:01.860Z,7.70
2023-04-15T20:01:28.995Z,7.80
2023-04-15T20:03:56.197Z,7.80
2023-04-15T20:06:23.419Z,7.80
2023-04-15T20:08:50.290Z,7.80
2023-04-15T20:11:17.111Z,7.80
2023-04-15T20:13:44.208Z,7.80
2023-04-15T20:16:12.266Z,7.80
2023-04-15T20:18:39.160Z,7.80
2023-04-15T20:21:06.027Z,7.80
2023-04-15T20:23:35.336Z,7.70
2023-04-15T20:26:02.274Z,7.80
2023-04-15T20:28:29.061Z,7.80
2023-04-15T20:30:55.985Z,7.80
2023-04-15T20:33:22.847Z,7.90
2023-04-15T20:35:49.695Z,7.90
2023-04-15T20:38:16.604Z,7.90
2023-04-15T20:40:43.548Z,7.80
2023-04-15T20:43:10.477Z,7.70
2023-04-15T20:45:38.237Z,7.80
2023-04-15T20:48:05.972Z,7.90
2023-04-15T20:50:32.931Z,7.90
2023-04-15T20:52:59.953Z,7.90
2023-04-15T20:55:27.950Z,7.90
2023-04-15T20:57:56.922Z,7.90
2023-04-15T21:00:23.868Z,7.90
2023-04-15T21:02:51.331Z,7.80
2023-04-15T21:05:18.328Z,7.90
2023-04-15T21:07:45.406Z,7.80
2023-04-15T21:10:12.213Z,7.90
2023-04-15T21:12:40.828Z,7.90
2023-04-15T21:15:08.498Z,7.80
2023-04-15T21:17:35.496Z,7.90
2023-04-15T21:20:02.956Z,7.90
2023-04-15T21:22:29.950Z,7.90
2023-04-15T21:24:57.004Z,7.80
2023-04-15T21:27:25.600Z,7.90
2023-04-15T21:29:52.726Z,7.90
2023-04-15T21:32:20.451Z,7.90
2023-04-15T21:34:47.433Z,7.80
2023-04-15T21:37:14.278Z,7.90
2023-04-15T21:39:41.220Z,7.90
2023-04-15T21:42:08.092Z,7.90
2023-04-15T21:44:34.941Z,7.90
2023-04-15T21:47:02.339Z,7.90
2023-04-15T21:49:29.589Z,7.80
2023-04-15T21:52:01.046Z,7.90
2023-04-15T21:54:28.469Z,7.90
2023-04-15T21:56:58.100Z,7.90
2023-04-15T21:59:25.127Z,7.90
2023-04-15T22:01:52.050Z,7.90
2023-04-15T22:04:19.159Z,7.90
2023-04-15T22:06:46.907Z,7.80
2023-04-15T22:09:14.481Z,7.90
2023-04-15T22:11:41.678Z,7.90
2023-04-15T22:14:09.190Z,7.90
2023-04-15T22:16:36.327Z,7.90
2023-04-15T22:19:03.242Z,7.90
2023-04-15T22:21:30.426Z,7.90
2023-04-15T22:24:32.285Z,7.90
2023-04-15T22:26:46.527Z,7.90
2023-04-15T22:29:13.724Z,7.90
2023-04-15T22:31:41.024Z,7.90
2023-04-15T22:34:08.618Z,7.90
2023-04-15T22:36:35.783Z,8.00
2023-04-15T22:39:03.216Z,7.90
2023-04-15T22:41:30.860Z,7.90
2023-04-15T22:43:57.631Z,7.90
2023-04-15T22:46:25.071Z,7.90
2023-04-15T22:48:54.024Z,8.00
2023-04-15T22:51:26.899Z,7.90
2023-04-15T22:53:54.907Z,7.90
2023-04-15T22:56:22.841Z,8.00
2023-04-15T22:58:50.187Z,7.90
2023-04-15T23:01:17.882Z,7.90
2023-04-15T23:03:56.110Z,7.90
2023-04-15T23:06:27.102Z,7.90
2023-04-15T23:08:54.015Z,7.90
2023-04-15T23:11:21.085Z,7.90
2023-04-15T23:13:47.909Z,7.90
2023-04-15T23:16:14.821Z,7.90
2023-04-15T23:18:41.613Z,8.00
2023-04-15T23:21:08.703Z,8.00
2023-04-15T23:23:35.448Z,8.00
2023-04-15T23:26:05.127Z,8.00
2023-04-15T23:28:32.176Z,8.00
2023-04-15T23:31:00.656Z,8.00
2023-04-15T23:33:28.016Z,8.00
2023-04-15T23:35:55.534Z,8.10
2023-04-15T23:38:22.349Z,8.00
2023-04-15T23:40:51.032Z,8.00
2023-04-15T23:43:17.913Z,8.00
2023-04-15T23:45:44.734Z,8.00
2023-04-15T23:48:11.492Z,8.00
2023-04-15T23:50:38.428Z,8.00
2023-04-15T23:53:05.501Z,8.00
2023-04-15T23:55:32.314Z,8.00
2023-04-15T23:57:59.167Z,8.00
